sensor_id;sensor_type;location;lat;lon;timestamp;P1;durP1;ratioP1;P2;durP2;ratioP2
3653;SDS011;70277;54.302;10.064;2023-07-16T00:02:00;6.65;;;2.00;;
3653;SDS011;70277;54.302;10.064;2023-07-16T00:04:26;7.35;;;2.08;;
3653;SDS011;70277;54.302;10.064;2023-07-16T00:06:53;16.33;;;2.83;;
3653;SDS011;70277;54.302;10.064;2023-07-16T00:09:19;5.47;;;2.33;;
3653;SDS011;70277;54.302;10.064;2023-07-16T00:11:46;6.05;;;2.53;;
3653;SDS011;70277;54.302;10.064;2023-07-16T00:14:12;10.68;;;2.28;;
3653;SDS011;70277;54.302;10.064;2023-07-16T00:16:39;8.48;;;2.08;;
3653;SDS011;70277;54.302;10.064;2023-07-16T00:19:05;5.68;;;2.00;;
3653;SDS011;70277;54.302;10.064;2023-07-16T00:21:32;6.93;;;1.88;;
3653;SDS011;70277;54.302;10.064;2023-07-16T00:23:58;4.80;;;1.90;;
3653;SDS011;70277;54.302;10.064;2023-07-16T00:26:25;8.07;;;2.03;;
3653;SDS011;70277;54.302;10.064;2023-07-16T00:28:51;5.78;;;2.20;;
3653;SDS011;70277;54.302;10.064;2023-07-16T00:31:18;10.27;;;2.05;;
3653;SDS011;70277;54.302;10.064;2023-07-16T00:33:44;7.40;;;2.03;;
3653;SDS011;70277;54.302;10.064;2023-07-16T00:36:11;5.72;;;2.50;;
3653;SDS011;70277;54.302;10.064;2023-07-16T00:38:37;7.22;;;2.58;;
3653;SDS011;70277;54.302;10.064;2023-07-16T00:41:06;4.28;;;1.95;;
3653;SDS011;70277;54.302;10.064;2023-07-16T00:43:32;5.38;;;2.13;;
3653;SDS011;70277;54.302;10.064;2023-07-16T00:45:59;6.32;;;2.17;;
3653;SDS011;70277;54.302;10.064;2023-07-16T00:48:26;7.60;;;2.40;;
3653;SDS011;70277;54.302;10.064;2023-07-16T00:50:54;11.65;;;2.60;;
3653;SDS011;70277;54.302;10.064;2023-07-16T00:53:22;6.63;;;2.00;;
3653;SDS011;70277;54.302;10.064;2023-07-16T00:55:49;4.43;;;1.90;;
3653;SDS011;70277;54.302;10.064;2023-07-16T00:58:16;6.15;;;2.22;;
3653;SDS011;70277;54.302;10.064;2023-07-16T01:00:42;6.18;;;2.03;;
3653;SDS011;70277;54.302;10.064;2023-07-16T01:03:10;6.05;;;1.90;;
3653;SDS011;70277;54.302;10.064;2023-07-16T01:05:45;5.13;;;1.90;;
3653;SDS011;70277;54.302;10.064;2023-07-16T01:08:14;5.45;;;1.88;;
3653;SDS011;70277;54.302;10.064;2023-07-16T01:10:47;7.93;;;2.30;;
3653;SDS011;70277;54.302;10.064;2023-07-16T01:13:15;6.40;;;2.03;;
3653;SDS011;70277;54.302;10.064;2023-07-16T01:15:42;4.85;;;1.98;;
3653;SDS011;70277;54.302;10.064;2023-07-16T01:18:08;7.90;;;2.22;;
3653;SDS011;70277;54.302;10.064;2023-07-16T01:20:35;11.48;;;2.30;;
3653;SDS011;70277;54.302;10.064;2023-07-16T01:23:24;6.00;;;1.98;;
3653;SDS011;70277;54.302;10.064;2023-07-16T01:26:14;5.45;;;2.25;;
3653;SDS011;70277;54.302;10.064;2023-07-16T01:29:27;7.22;;;1.98;;
3653;SDS011;70277;54.302;10.064;2023-07-16T01:31:57;9.05;;;2.30;;
3653;SDS011;70277;54.302;10.064;2023-07-16T01:34:27;12.50;;;2.50;;
3653;SDS011;70277;54.302;10.064;2023-07-16T01:36:56;7.57;;;2.45;;
3653;SDS011;70277;54.302;10.064;2023-07-16T01:39:23;5.38;;;2.75;;
3653;SDS011;70277;54.302;10.064;2023-07-16T01:41:50;4.68;;;2.20;;
3653;SDS011;70277;54.302;10.064;2023-07-16T01:44:17;5.63;;;2.17;;
3653;SDS011;70277;54.302;10.064;2023-07-16T01:46:43;9.15;;;2.42;;
3653;SDS011;70277;54.302;10.064;2023-07-16T01:49:10;9.65;;;2.50;;
3653;SDS011;70277;54.302;10.064;2023-07-16T01:51:36;6.18;;;2.53;;
3653;SDS011;70277;54.302;10.064;2023-07-16T01:54:03;7.00;;;2.45;;
3653;SDS011;70277;54.302;10.064;2023-07-16T01:56:29;7.43;;;3.55;;
3653;SDS011;70277;54.302;10.064;2023-07-16T01:58:56;6.10;;;2.10;;
3653;SDS011;70277;54.302;10.064;2023-07-16T02:01:22;8.48;;;2.58;;
3653;SDS011;70277;54.302;10.064;2023-07-16T02:03:49;5.13;;;1.98;;
3653;SDS011;70277;54.302;10.064;2023-07-16T02:06:15;8.98;;;2.00;;
3653;SDS011;70277;54.302;10.064;2023-07-16T02:08:42;8.68;;;2.63;;
3653;SDS011;70277;54.302;10.064;2023-07-16T02:11:08;7.00;;;2.20;;
3653;SDS011;70277;54.302;10.064;2023-07-16T02:13:35;5.03;;;2.33;;
3653;SDS011;70277;54.302;10.064;2023-07-16T02:16:01;6.07;;;2.50;;
3653;SDS011;70277;54.302;10.064;2023-07-16T02:18:28;3.38;;;2.33;;
3653;SDS011;70277;54.302;10.064;2023-07-16T02:20:54;7.85;;;2.28;;
3653;SDS011;70277;54.302;10.064;2023-07-16T02:23:21;5.97;;;2.10;;
3653;SDS011;70277;54.302;10.064;2023-07-16T02:25:47;6.47;;;2.22;;
3653;SDS011;70277;54.302;10.064;2023-07-16T02:28:14;5.75;;;2.13;;
3653;SDS011;70277;54.302;10.064;2023-07-16T02:30:41;6.82;;;2.35;;
3653;SDS011;70277;54.302;10.064;2023-07-16T02:33:08;3.13;;;1.95;;
3653;SDS011;70277;54.302;10.064;2023-07-16T02:35:34;4.72;;;2.08;;
3653;SDS011;70277;54.302;10.064;2023-07-16T02:38:00;5.90;;;2.55;;
3653;SDS011;70277;54.302;10.064;2023-07-16T02:40:27;2.88;;;1.95;;
3653;SDS011;70277;54.302;10.064;2023-07-16T02:42:53;6.78;;;2.15;;
3653;SDS011;70277;54.302;10.064;2023-07-16T02:45:20;8.30;;;2.30;;
3653;SDS011;70277;54.302;10.064;2023-07-16T02:47:46;2.67;;;2.10;;
3653;SDS011;70277;54.302;10.064;2023-07-16T02:50:13;5.65;;;2.25;;
3653;SDS011;70277;54.302;10.064;2023-07-16T02:52:39;6.05;;;2.10;;
3653;SDS011;70277;54.302;10.064;2023-07-16T02:55:06;3.00;;;1.88;;
3653;SDS011;70277;54.302;10.064;2023-07-16T02:57:32;3.92;;;2.08;;
3653;SDS011;70277;54.302;10.064;2023-07-16T02:59:59;3.13;;;1.80;;
3653;SDS011;70277;54.302;10.064;2023-07-16T03:02:25;7.97;;;2.00;;
3653;SDS011;70277;54.302;10.064;2023-07-16T03:04:52;5.35;;;1.90;;
3653;SDS011;70277;54.302;10.064;2023-07-16T03:07:18;4.85;;;1.95;;
3653;SDS011;70277;54.302;10.064;2023-07-16T03:09:45;4.63;;;1.75;;
3653;SDS011;70277;54.302;10.064;2023-07-16T03:12:11;5.13;;;2.22;;
3653;SDS011;70277;54.302;10.064;2023-07-16T03:14:38;5.78;;;1.90;;
3653;SDS011;70277;54.302;10.064;2023-07-16T03:17:04;4.47;;;1.80;;
3653;SDS011;70277;54.302;10.064;2023-07-16T03:19:33;2.47;;;1.85;;
3653;SDS011;70277;54.302;10.064;2023-07-16T03:21:59;5.07;;;1.95;;
3653;SDS011;70277;54.302;10.064;2023-07-16T03:24:25;6.43;;;2.20;;
3653;SDS011;70277;54.302;10.064;2023-07-16T03:26:52;7.88;;;2.25;;
3653;SDS011;70277;54.302;10.064;2023-07-16T03:29:29;8.55;;;2.40;;
3653;SDS011;70277;54.302;10.064;2023-07-16T03:31:56;6.90;;;2.08;;
3653;SDS011;70277;54.302;10.064;2023-07-16T03:34:22;7.32;;;1.92;;
3653;SDS011;70277;54.302;10.064;2023-07-16T03:36:50;3.10;;;1.70;;
3653;SDS011;70277;54.302;10.064;2023-07-16T03:39:16;15.73;;;2.20;;
3653;SDS011;70277;54.302;10.064;2023-07-16T03:41:43;6.13;;;2.20;;
3653;SDS011;70277;54.302;10.064;2023-07-16T03:44:09;8.45;;;2.10;;
3653;SDS011;70277;54.302;10.064;2023-07-16T03:46:36;8.63;;;2.42;;
3653;SDS011;70277;54.302;10.064;2023-07-16T03:49:02;8.18;;;2.72;;
3653;SDS011;70277;54.302;10.064;2023-07-16T03:51:29;6.15;;;2.15;;
3653;SDS011;70277;54.302;10.064;2023-07-16T03:53:56;3.30;;;2.10;;
3653;SDS011;70277;54.302;10.064;2023-07-16T03:56:22;9.93;;;2.25;;
3653;SDS011;70277;54.302;10.064;2023-07-16T03:58:49;8.57;;;2.28;;
3653;SDS011;70277;54.302;10.064;2023-07-16T04:01:15;8.35;;;2.35;;
3653;SDS011;70277;54.302;10.064;2023-07-16T04:03:42;5.65;;;2.08;;
3653;SDS011;70277;54.302;10.064;2023-07-16T04:06:08;5.68;;;2.45;;
3653;SDS011;70277;54.302;10.064;2023-07-16T04:08:36;14.38;;;2.30;;
3653;SDS011;70277;54.302;10.064;2023-07-16T04:11:03;4.82;;;2.03;;
3653;SDS011;70277;54.302;10.064;2023-07-16T04:13:30;4.03;;;2.10;;
3653;SDS011;70277;54.302;10.064;2023-07-16T04:15:57;9.93;;;2.30;;
3653;SDS011;70277;54.302;10.064;2023-07-16T04:18:24;12.00;;;2.33;;
3653;SDS011;70277;54.302;10.064;2023-07-16T04:20:51;13.90;;;2.55;;
3653;SDS011;70277;54.302;10.064;2023-07-16T04:23:18;9.32;;;2.05;;
3653;SDS011;70277;54.302;10.064;2023-07-16T04:25:45;8.32;;;2.60;;
3653;SDS011;70277;54.302;10.064;2023-07-16T04:28:12;5.43;;;2.15;;
3653;SDS011;70277;54.302;10.064;2023-07-16T04:30:38;5.00;;;2.30;;
3653;SDS011;70277;54.302;10.064;2023-07-16T04:33:05;8.55;;;2.33;;
3653;SDS011;70277;54.302;10.064;2023-07-16T04:35:32;8.27;;;2.38;;
3653;SDS011;70277;54.302;10.064;2023-07-16T04:37:59;8.80;;;2.78;;
3653;SDS011;70277;54.302;10.064;2023-07-16T04:40:26;9.63;;;2.55;;
3653;SDS011;70277;54.302;10.064;2023-07-16T04:42:52;14.45;;;3.03;;
3653;SDS011;70277;54.302;10.064;2023-07-16T04:45:18;6.03;;;1.92;;
3653;SDS011;70277;54.302;10.064;2023-07-16T04:47:45;6.18;;;2.33;;
3653;SDS011;70277;54.302;10.064;2023-07-16T04:50:11;9.48;;;2.53;;
3653;SDS011;70277;54.302;10.064;2023-07-16T04:52:38;5.40;;;2.10;;
3653;SDS011;70277;54.302;10.064;2023-07-16T04:55:05;6.35;;;2.13;;
3653;SDS011;70277;54.302;10.064;2023-07-16T04:57:32;5.28;;;2.03;;
3653;SDS011;70277;54.302;10.064;2023-07-16T04:59:59;6.78;;;2.30;;
3653;SDS011;70277;54.302;10.064;2023-07-16T05:02:26;8.55;;;2.38;;
3653;SDS011;70277;54.302;10.064;2023-07-16T05:04:52;12.50;;;2.78;;
3653;SDS011;70277;54.302;10.064;2023-07-16T05:07:18;8.50;;;2.10;;
3653;SDS011;70277;54.302;10.064;2023-07-16T05:09:45;7.32;;;2.15;;
3653;SDS011;70277;54.302;10.064;2023-07-16T05:12:11;5.13;;;2.42;;
3653;SDS011;70277;54.302;10.064;2023-07-16T05:14:45;19.80;;;2.33;;
3653;SDS011;70277;54.302;10.064;2023-07-16T05:17:13;6.05;;;2.42;;
3653;SDS011;70277;54.302;10.064;2023-07-16T05:19:40;6.40;;;2.30;;
3653;SDS011;70277;54.302;10.064;2023-07-16T05:22:08;7.53;;;2.42;;
3653;SDS011;70277;54.302;10.064;2023-07-16T05:24:34;6.70;;;2.10;;
3653;SDS011;70277;54.302;10.064;2023-07-16T05:27:01;9.25;;;2.38;;
3653;SDS011;70277;54.302;10.064;2023-07-16T05:29:27;5.93;;;2.45;;
3653;SDS011;70277;54.302;10.064;2023-07-16T05:31:54;7.53;;;2.20;;
3653;SDS011;70277;54.302;10.064;2023-07-16T05:34:21;7.13;;;2.38;;
3653;SDS011;70277;54.302;10.064;2023-07-16T05:36:47;6.45;;;2.50;;
3653;SDS011;70277;54.302;10.064;2023-07-16T05:39:14;12.25;;;2.90;;
3653;SDS011;70277;54.302;10.064;2023-07-16T05:41:40;7.20;;;2.60;;
3653;SDS011;70277;54.302;10.064;2023-07-16T05:44:07;10.13;;;2.78;;
3653;SDS011;70277;54.302;10.064;2023-07-16T05:46:34;14.35;;;2.80;;
3653;SDS011;70277;54.302;10.064;2023-07-16T05:49:01;3.60;;;2.53;;
3653;SDS011;70277;54.302;10.064;2023-07-16T05:51:27;6.40;;;2.10;;
3653;SDS011;70277;54.302;10.064;2023-07-16T05:53:54;7.70;;;2.30;;
3653;SDS011;70277;54.302;10.064;2023-07-16T05:56:20;6.00;;;2.88;;
3653;SDS011;70277;54.302;10.064;2023-07-16T05:58:47;10.18;;;2.47;;
3653;SDS011;70277;54.302;10.064;2023-07-16T06:01:13;5.93;;;2.45;;
3653;SDS011;70277;54.302;10.064;2023-07-16T06:03:40;12.35;;;2.55;;
3653;SDS011;70277;54.302;10.064;2023-07-16T06:06:08;8.25;;;2.33;;
3653;SDS011;70277;54.302;10.064;2023-07-16T06:08:35;8.77;;;2.20;;
3653;SDS011;70277;54.302;10.064;2023-07-16T06:11:01;9.65;;;2.40;;
3653;SDS011;70277;54.302;10.064;2023-07-16T06:13:28;8.90;;;2.22;;
3653;SDS011;70277;54.302;10.064;2023-07-16T06:15:54;7.05;;;2.40;;
3653;SDS011;70277;54.302;10.064;2023-07-16T06:18:21;7.57;;;2.10;;
3653;SDS011;70277;54.302;10.064;2023-07-16T06:20:47;4.60;;;2.38;;
3653;SDS011;70277;54.302;10.064;2023-07-16T06:23:14;7.03;;;2.28;;
3653;SDS011;70277;54.302;10.064;2023-07-16T06:25:42;3.70;;;2.03;;
3653;SDS011;70277;54.302;10.064;2023-07-16T06:28:14;8.38;;;2.70;;
3653;SDS011;70277;54.302;10.064;2023-07-16T06:30:41;5.32;;;2.60;;
3653;SDS011;70277;54.302;10.064;2023-07-16T06:33:07;8.60;;;2.53;;
3653;SDS011;70277;54.302;10.064;2023-07-16T06:35:34;7.78;;;2.83;;
3653;SDS011;70277;54.302;10.064;2023-07-16T06:38:01;10.73;;;2.45;;
3653;SDS011;70277;54.302;10.064;2023-07-16T06:40:28;8.10;;;2.25;;
3653;SDS011;70277;54.302;10.064;2023-07-16T06:42:56;7.05;;;2.17;;
3653;SDS011;70277;54.302;10.064;2023-07-16T06:45:23;9.25;;;2.25;;
3653;SDS011;70277;54.302;10.064;2023-07-16T06:47:49;5.88;;;2.42;;
3653;SDS011;70277;54.302;10.064;2023-07-16T06:50:16;8.02;;;3.30;;
3653;SDS011;70277;54.302;10.064;2023-07-16T06:52:42;8.73;;;2.60;;
3653;SDS011;70277;54.302;10.064;2023-07-16T06:55:09;6.70;;;2.50;;
3653;SDS011;70277;54.302;10.064;2023-07-16T06:57:35;5.88;;;2.38;;
3653;SDS011;70277;54.302;10.064;2023-07-16T07:00:02;9.80;;;2.58;;
3653;SDS011;70277;54.302;10.064;2023-07-16T07:02:28;5.15;;;2.83;;
3653;SDS011;70277;54.302;10.064;2023-07-16T07:04:55;9.38;;;2.40;;
3653;SDS011;70277;54.302;10.064;2023-07-16T07:07:21;5.13;;;2.40;;
3653;SDS011;70277;54.302;10.064;2023-07-16T07:09:48;7.15;;;2.60;;
3653;SDS011;70277;54.302;10.064;2023-07-16T07:12:17;7.00;;;2.55;;
3653;SDS011;70277;54.302;10.064;2023-07-16T07:14:43;4.93;;;2.38;;
3653;SDS011;70277;54.302;10.064;2023-07-16T07:17:10;10.10;;;2.92;;
3653;SDS011;70277;54.302;10.064;2023-07-16T07:19:37;5.00;;;2.67;;
3653;SDS011;70277;54.302;10.064;2023-07-16T07:22:04;11.65;;;2.58;;
3653;SDS011;70277;54.302;10.064;2023-07-16T07:24:30;10.95;;;2.75;;
3653;SDS011;70277;54.302;10.064;2023-07-16T07:26:57;8.38;;;2.95;;
3653;SDS011;70277;54.302;10.064;2023-07-16T07:29:23;7.50;;;2.67;;
3653;SDS011;70277;54.302;10.064;2023-07-16T07:31:50;10.85;;;2.90;;
3653;SDS011;70277;54.302;10.064;2023-07-16T07:34:16;7.50;;;2.80;;
3653;SDS011;70277;54.302;10.064;2023-07-16T07:36:43;7.18;;;2.60;;
3653;SDS011;70277;54.302;10.064;2023-07-16T07:39:09;7.97;;;3.03;;
3653;SDS011;70277;54.302;10.064;2023-07-16T07:41:36;5.30;;;2.60;;
3653;SDS011;70277;54.302;10.064;2023-07-16T07:44:02;7.88;;;2.92;;
3653;SDS011;70277;54.302;10.064;2023-07-16T07:46:29;4.93;;;2.30;;
3653;SDS011;70277;54.302;10.064;2023-07-16T07:48:55;7.45;;;2.80;;
3653;SDS011;70277;54.302;10.064;2023-07-16T07:51:22;9.93;;;3.35;;
3653;SDS011;70277;54.302;10.064;2023-07-16T07:53:48;11.15;;;3.22;;
3653;SDS011;70277;54.302;10.064;2023-07-16T07:56:15;7.35;;;3.00;;
3653;SDS011;70277;54.302;10.064;2023-07-16T07:58:42;10.55;;;3.00;;
3653;SDS011;70277;54.302;10.064;2023-07-16T08:01:08;9.68;;;3.40;;
3653;SDS011;70277;54.302;10.064;2023-07-16T08:03:35;11.43;;;3.40;;
3653;SDS011;70277;54.302;10.064;2023-07-16T08:06:02;8.93;;;3.17;;
3653;SDS011;70277;54.302;10.064;2023-07-16T08:08:28;12.35;;;3.40;;
3653;SDS011;70277;54.302;10.064;2023-07-16T08:10:55;5.72;;;2.75;;
3653;SDS011;70277;54.302;10.064;2023-07-16T08:13:21;11.73;;;2.90;;
3653;SDS011;70277;54.302;10.064;2023-07-16T08:15:48;7.10;;;3.20;;
3653;SDS011;70277;54.302;10.064;2023-07-16T08:18:14;12.52;;;3.22;;
3653;SDS011;70277;54.302;10.064;2023-07-16T08:20:41;6.65;;;2.67;;
3653;SDS011;70277;54.302;10.064;2023-07-16T08:23:08;8.38;;;2.85;;
3653;SDS011;70277;54.302;10.064;2023-07-16T08:25:34;8.38;;;2.70;;
3653;SDS011;70277;54.302;10.064;2023-07-16T08:28:04;9.65;;;3.40;;
3653;SDS011;70277;54.302;10.064;2023-07-16T08:30:32;10.20;;;3.25;;
3653;SDS011;70277;54.302;10.064;2023-07-16T08:32:59;7.00;;;2.60;;
3653;SDS011;70277;54.302;10.064;2023-07-16T08:35:26;7.80;;;3.20;;
3653;SDS011;70277;54.302;10.064;2023-07-16T08:37:52;11.45;;;3.13;;
3653;SDS011;70277;54.302;10.064;2023-07-16T08:40:18;4.75;;;2.60;;
3653;SDS011;70277;54.302;10.064;2023-07-16T08:42:46;7.88;;;2.97;;
3653;SDS011;70277;54.302;10.064;2023-07-16T08:45:15;7.38;;;3.10;;
3653;SDS011;70277;54.302;10.064;2023-07-16T08:47:42;9.20;;;3.40;;
3653;SDS011;70277;54.302;10.064;2023-07-16T08:50:09;8.38;;;2.97;;
3653;SDS011;70277;54.302;10.064;2023-07-16T08:52:36;12.40;;;3.05;;
3653;SDS011;70277;54.302;10.064;2023-07-16T08:55:03;7.45;;;2.58;;
3653;SDS011;70277;54.302;10.064;2023-07-16T08:57:30;6.28;;;2.90;;
3653;SDS011;70277;54.302;10.064;2023-07-16T08:59:57;14.00;;;2.80;;
3653;SDS011;70277;54.302;10.064;2023-07-16T09:02:24;6.13;;;3.08;;
3653;SDS011;70277;54.302;10.064;2023-07-16T09:04:51;4.15;;;2.80;;
3653;SDS011;70277;54.302;10.064;2023-07-16T09:07:18;7.10;;;2.78;;
3653;SDS011;70277;54.302;10.064;2023-07-16T09:09:55;11.10;;;3.10;;
3653;SDS011;70277;54.302;10.064;2023-07-16T09:12:24;11.18;;;2.75;;
3653;SDS011;70277;54.302;10.064;2023-07-16T09:14:51;5.10;;;2.75;;
3653;SDS011;70277;54.302;10.064;2023-07-16T09:17:24;7.05;;;2.67;;
3653;SDS011;70277;54.302;10.064;2023-07-16T09:19:52;6.70;;;2.85;;
3653;SDS011;70277;54.302;10.064;2023-07-16T09:22:19;15.60;;;3.03;;
3653;SDS011;70277;54.302;10.064;2023-07-16T09:24:49;8.25;;;2.53;;
3653;SDS011;70277;54.302;10.064;2023-07-16T09:27:15;9.27;;;2.90;;
3653;SDS011;70277;54.302;10.064;2023-07-16T09:29:41;6.90;;;2.45;;
3653;SDS011;70277;54.302;10.064;2023-07-16T09:32:08;7.57;;;2.67;;
3653;SDS011;70277;54.302;10.064;2023-07-16T09:34:35;5.88;;;2.28;;
3653;SDS011;70277;54.302;10.064;2023-07-16T09:37:03;9.82;;;2.60;;
3653;SDS011;70277;54.302;10.064;2023-07-16T09:39:30;8.15;;;2.47;;
3653;SDS011;70277;54.302;10.064;2023-07-16T09:41:58;4.78;;;2.80;;
3653;SDS011;70277;54.302;10.064;2023-07-16T09:44:24;4.40;;;2.47;;
3653;SDS011;70277;54.302;10.064;2023-07-16T09:46:51;6.25;;;3.05;;
3653;SDS011;70277;54.302;10.064;2023-07-16T09:49:17;15.00;;;2.70;;
3653;SDS011;70277;54.302;10.064;2023-07-16T09:51:44;5.03;;;2.25;;
3653;SDS011;70277;54.302;10.064;2023-07-16T09:54:14;8.75;;;2.70;;
3653;SDS011;70277;54.302;10.064;2023-07-16T09:59:16;4.65;;;2.30;;
3653;SDS011;70277;54.302;10.064;2023-07-16T10:01:46;10.75;;;2.30;;
3653;SDS011;70277;54.302;10.064;2023-07-16T10:04:16;4.78;;;2.00;;
3653;SDS011;70277;54.302;10.064;2023-07-16T10:06:59;4.70;;;2.20;;
3653;SDS011;70277;54.302;10.064;2023-07-16T10:09:36;8.40;;;2.65;;
3653;SDS011;70277;54.302;10.064;2023-07-16T10:14:45;4.18;;;2.33;;
3653;SDS011;70277;54.302;10.064;2023-07-16T10:17:22;4.63;;;2.25;;
3653;SDS011;70277;54.302;10.064;2023-07-16T10:22:37;3.63;;;2.00;;
3653;SDS011;70277;54.302;10.064;2023-07-16T10:25:24;6.38;;;2.13;;
3653;SDS011;70277;54.302;10.064;2023-07-16T10:27:54;6.30;;;1.80;;
3653;SDS011;70277;54.302;10.064;2023-07-16T10:30:21;6.35;;;1.67;;
3653;SDS011;70277;54.302;10.064;2023-07-16T10:32:47;7.13;;;1.80;;
3653;SDS011;70277;54.302;10.064;2023-07-16T10:35:16;3.03;;;1.90;;
3653;SDS011;70277;54.302;10.064;2023-07-16T10:37:42;5.10;;;2.38;;
3653;SDS011;70277;54.302;10.064;2023-07-16T10:40:10;7.95;;;2.20;;
3653;SDS011;70277;54.302;10.064;2023-07-16T10:42:39;4.03;;;1.77;;
3653;SDS011;70277;54.302;10.064;2023-07-16T10:45:07;8.13;;;1.97;;
3653;SDS011;70277;54.302;10.064;2023-07-16T10:47:35;4.78;;;1.73;;
3653;SDS011;70277;54.302;10.064;2023-07-16T10:50:03;5.33;;;1.80;;
3653;SDS011;70277;54.302;10.064;2023-07-16T10:52:31;3.13;;;1.88;;
3653;SDS011;70277;54.302;10.064;2023-07-16T10:54:58;3.15;;;1.88;;
3653;SDS011;70277;54.302;10.064;2023-07-16T10:57:25;4.30;;;1.85;;
3653;SDS011;70277;54.302;10.064;2023-07-16T10:59:52;1.95;;;1.55;;
3653;SDS011;70277;54.302;10.064;2023-07-16T11:02:21;4.65;;;1.95;;
3653;SDS011;70277;54.302;10.064;2023-07-16T11:04:49;3.72;;;1.73;;
3653;SDS011;70277;54.302;10.064;2023-07-16T11:07:19;4.57;;;2.20;;
3653;SDS011;70277;54.302;10.064;2023-07-16T11:09:51;1.88;;;1.60;;
3653;SDS011;70277;54.302;10.064;2023-07-16T11:12:22;3.97;;;1.80;;
3653;SDS011;70277;54.302;10.064;2023-07-16T11:14:51;2.67;;;1.67;;
3653;SDS011;70277;54.302;10.064;2023-07-16T11:17:19;7.03;;;2.17;;
3653;SDS011;70277;54.302;10.064;2023-07-16T11:19:47;10.35;;;2.15;;
3653;SDS011;70277;54.302;10.064;2023-07-16T11:22:16;3.65;;;1.92;;
3653;SDS011;70277;54.302;10.064;2023-07-16T11:24:43;4.25;;;2.03;;
3653;SDS011;70277;54.302;10.064;2023-07-16T11:27:14;3.65;;;1.50;;
3653;SDS011;70277;54.302;10.064;2023-07-16T11:29:45;7.20;;;1.80;;
3653;SDS011;70277;54.302;10.064;2023-07-16T11:34:51;5.78;;;2.33;;
3653;SDS011;70277;54.302;10.064;2023-07-16T11:37:18;4.53;;;1.88;;
3653;SDS011;70277;54.302;10.064;2023-07-16T11:39:47;3.88;;;1.90;;
3653;SDS011;70277;54.302;10.064;2023-07-16T11:42:14;4.50;;;2.22;;
3653;SDS011;70277;54.302;10.064;2023-07-16T11:44:48;5.45;;;2.17;;
3653;SDS011;70277;54.302;10.064;2023-07-16T11:47:15;6.65;;;2.08;;
3653;SDS011;70277;54.302;10.064;2023-07-16T11:49:41;2.58;;;1.80;;
3653;SDS011;70277;54.302;10.064;2023-07-16T11:52:08;4.00;;;2.17;;
3653;SDS011;70277;54.302;10.064;2023-07-16T11:54:34;5.53;;;2.25;;
3653;SDS011;70277;54.302;10.064;2023-07-16T11:57:01;6.60;;;2.13;;
3653;SDS011;70277;54.302;10.064;2023-07-16T11:59:27;4.93;;;2.47;;
3653;SDS011;70277;54.302;10.064;2023-07-16T12:01:54;2.30;;;1.92;;
3653;SDS011;70277;54.302;10.064;2023-07-16T12:04:20;4.88;;;2.00;;
3653;SDS011;70277;54.302;10.064;2023-07-16T12:06:47;4.85;;;2.40;;
3653;SDS011;70277;54.302;10.064;2023-07-16T12:09:13;3.65;;;2.38;;
3653;SDS011;70277;54.302;10.064;2023-07-16T12:11:40;4.15;;;2.40;;
3653;SDS011;70277;54.302;10.064;2023-07-16T12:14:06;6.55;;;2.30;;
3653;SDS011;70277;54.302;10.064;2023-07-16T12:16:33;6.82;;;2.10;;
3653;SDS011;70277;54.302;10.064;2023-07-16T12:19:02;10.20;;;2.20;;
3653;SDS011;70277;54.302;10.064;2023-07-16T12:21:28;4.70;;;2.35;;
3653;SDS011;70277;54.302;10.064;2023-07-16T12:23:55;5.07;;;2.60;;
3653;SDS011;70277;54.302;10.064;2023-07-16T12:26:21;6.35;;;2.28;;
3653;SDS011;70277;54.302;10.064;2023-07-16T12:28:48;3.00;;;2.38;;
3653;SDS011;70277;54.302;10.064;2023-07-16T12:31:14;4.60;;;2.42;;
3653;SDS011;70277;54.302;10.064;2023-07-16T12:33:42;5.68;;;2.47;;
3653;SDS011;70277;54.302;10.064;2023-07-16T12:36:09;5.45;;;2.53;;
3653;SDS011;70277;54.302;10.064;2023-07-16T12:38:36;7.70;;;2.53;;
3653;SDS011;70277;54.302;10.064;2023-07-16T12:41:02;5.78;;;2.53;;
3653;SDS011;70277;54.302;10.064;2023-07-16T12:43:29;4.90;;;2.20;;
3653;SDS011;70277;54.302;10.064;2023-07-16T12:46:01;4.57;;;2.47;;
3653;SDS011;70277;54.302;10.064;2023-07-16T12:48:31;5.78;;;2.63;;
3653;SDS011;70277;54.302;10.064;2023-07-16T12:50:58;4.15;;;2.50;;
3653;SDS011;70277;54.302;10.064;2023-07-16T12:53:24;3.70;;;2.03;;
3653;SDS011;70277;54.302;10.064;2023-07-16T12:55:52;6.78;;;2.88;;
3653;SDS011;70277;54.302;10.064;2023-07-16T12:58:19;5.53;;;2.63;;
3653;SDS011;70277;54.302;10.064;2023-07-16T13:00:45;4.13;;;2.30;;
3653;SDS011;70277;54.302;10.064;2023-07-16T13:03:12;5.60;;;2.50;;
3653;SDS011;70277;54.302;10.064;2023-07-16T13:05:43;8.68;;;2.45;;
3653;SDS011;70277;54.302;10.064;2023-07-16T13:08:09;12.85;;;2.47;;
3653;SDS011;70277;54.302;10.064;2023-07-16T13:10:36;4.10;;;2.50;;
3653;SDS011;70277;54.302;10.064;2023-07-16T13:13:03;10.45;;;3.00;;
3653;SDS011;70277;54.302;10.064;2023-07-16T13:15:30;6.13;;;2.58;;
3653;SDS011;70277;54.302;10.064;2023-07-16T13:17:56;3.40;;;2.47;;
3653;SDS011;70277;54.302;10.064;2023-07-16T13:20:23;2.83;;;2.55;;
3653;SDS011;70277;54.302;10.064;2023-07-16T13:22:50;6.45;;;2.67;;
3653;SDS011;70277;54.302;10.064;2023-07-16T13:25:16;5.40;;;2.35;;
3653;SDS011;70277;54.302;10.064;2023-07-16T13:27:43;5.95;;;2.20;;
3653;SDS011;70277;54.302;10.064;2023-07-16T13:30:10;3.92;;;2.10;;
3653;SDS011;70277;54.302;10.064;2023-07-16T13:32:37;8.02;;;2.00;;
3653;SDS011;70277;54.302;10.064;2023-07-16T13:35:03;4.10;;;2.15;;
3653;SDS011;70277;54.302;10.064;2023-07-16T13:37:30;4.72;;;2.35;;
3653;SDS011;70277;54.302;10.064;2023-07-16T13:39:56;6.57;;;2.38;;
3653;SDS011;70277;54.302;10.064;2023-07-16T13:42:23;5.00;;;2.55;;
3653;SDS011;70277;54.302;10.064;2023-07-16T13:44:49;16.15;;;2.70;;
3653;SDS011;70277;54.302;10.064;2023-07-16T13:47:16;4.63;;;2.20;;
3653;SDS011;70277;54.302;10.064;2023-07-16T13:49:42;3.15;;;1.95;;
3653;SDS011;70277;54.302;10.064;2023-07-16T13:52:09;5.03;;;1.92;;
3653;SDS011;70277;54.302;10.064;2023-07-16T13:54:35;8.10;;;2.55;;
3653;SDS011;70277;54.302;10.064;2023-07-16T13:57:05;6.57;;;2.15;;
3653;SDS011;70277;54.302;10.064;2023-07-16T13:59:32;6.93;;;2.00;;
3653;SDS011;70277;54.302;10.064;2023-07-16T14:02:02;6.18;;;2.35;;
3653;SDS011;70277;54.302;10.064;2023-07-16T14:04:29;4.43;;;2.40;;
3653;SDS011;70277;54.302;10.064;2023-07-16T14:06:56;4.63;;;2.47;;
3653;SDS011;70277;54.302;10.064;2023-07-16T14:09:22;4.38;;;2.58;;
3653;SDS011;70277;54.302;10.064;2023-07-16T14:11:49;8.80;;;2.38;;
3653;SDS011;70277;54.302;10.064;2023-07-16T14:14:15;6.45;;;2.58;;
3653;SDS011;70277;54.302;10.064;2023-07-16T14:16:45;6.68;;;2.72;;
3653;SDS011;70277;54.302;10.064;2023-07-16T14:19:11;6.30;;;2.28;;
3653;SDS011;70277;54.302;10.064;2023-07-16T14:21:38;6.80;;;2.35;;
3653;SDS011;70277;54.302;10.064;2023-07-16T14:24:05;5.00;;;2.70;;
3653;SDS011;70277;54.302;10.064;2023-07-16T14:26:32;5.53;;;2.92;;
3653;SDS011;70277;54.302;10.064;2023-07-16T14:29:00;4.75;;;2.05;;
3653;SDS011;70277;54.302;10.064;2023-07-16T14:31:26;4.78;;;2.30;;
3653;SDS011;70277;54.302;10.064;2023-07-16T14:33:53;6.38;;;2.47;;
3653;SDS011;70277;54.302;10.064;2023-07-16T14:36:19;5.22;;;2.38;;
3653;SDS011;70277;54.302;10.064;2023-07-16T14:38:48;5.00;;;2.35;;
3653;SDS011;70277;54.302;10.064;2023-07-16T14:41:14;4.03;;;2.35;;
3653;SDS011;70277;54.302;10.064;2023-07-16T14:43:41;4.82;;;2.50;;
3653;SDS011;70277;54.302;10.064;2023-07-16T14:46:07;6.78;;;2.55;;
3653;SDS011;70277;54.302;10.064;2023-07-16T14:48:34;5.05;;;2.80;;
3653;SDS011;70277;54.302;10.064;2023-07-16T14:51:01;5.90;;;2.45;;
3653;SDS011;70277;54.302;10.064;2023-07-16T14:53:29;5.60;;;2.40;;
3653;SDS011;70277;54.302;10.064;2023-07-16T14:55:56;4.47;;;2.70;;
3653;SDS011;70277;54.302;10.064;2023-07-16T14:58:22;5.28;;;2.50;;